sensor_id;sensor_type;location;lat;lon;timestamp;P1;durP1;ratioP1;P2;durP2;ratioP2
16159;SDS011;8185;57.818;15.224;2022-08-19T00:01:56;27.30;;;24.47;;
16159;SDS011;8185;57.818;15.224;2022-08-19T00:04:26;27.80;;;24.80;;
16159;SDS011;8185;57.818;15.224;2022-08-19T00:06:55;28.03;;;25.33;;
16159;SDS011;8185;57.818;15.224;2022-08-19T00:09:23;28.50;;;25.73;;
16159;SDS011;8185;57.818;15.224;2022-08-19T00:11:51;28.47;;;25.47;;
16159;SDS011;8185;57.818;15.224;2022-08-19T00:14:20;27.70;;;24.73;;
16159;SDS011;8185;57.818;15.224;2022-08-19T00:16:49;28.77;;;25.70;;
16159;SDS011;8185;57.818;15.224;2022-08-19T00:19:19;28.50;;;25.50;;
16159;SDS011;8185;57.818;15.224;2022-08-19T00:21:48;28.27;;;25.63;;
16159;SDS011;8185;57.818;15.224;2022-08-19T00:24:16;29.03;;;26.07;;
16159;SDS011;8185;57.818;15.224;2022-08-19T00:26:44;28.97;;;25.77;;
16159;SDS011;8185;57.818;15.224;2022-08-19T00:29:12;29.87;;;26.87;;
16159;SDS011;8185;57.818;15.224;2022-08-19T00:31:40;28.57;;;25.87;;
16159;SDS011;8185;57.818;15.224;2022-08-19T00:34:08;30.23;;;27.17;;
16159;SDS011;8185;57.818;15.224;2022-08-19T00:36:36;32.07;;;28.63;;
16159;SDS011;8185;57.818;15.224;2022-08-19T00:39:05;29.93;;;26.93;;
16159;SDS011;8185;57.818;15.224;2022-08-19T00:41:33;32.60;;;29.23;;
16159;SDS011;8185;57.818;15.224;2022-08-19T00:44:02;33.87;;;30.27;;
16159;SDS011;8185;57.818;15.224;2022-08-19T00:46:34;34.37;;;30.27;;
16159;SDS011;8185;57.818;15.224;2022-08-19T00:49:06;32.50;;;29.03;;
16159;SDS011;8185;57.818;15.224;2022-08-19T00:51:36;32.03;;;28.80;;
16159;SDS011;8185;57.818;15.224;2022-08-19T00:54:03;31.53;;;28.43;;
16159;SDS011;8185;57.818;15.224;2022-08-19T00:56:32;31.40;;;28.20;;
16159;SDS011;8185;57.818;15.224;2022-08-19T00:59:00;29.27;;;26.07;;
16159;SDS011;8185;57.818;15.224;2022-08-19T01:01:33;32.97;;;28.63;;
16159;SDS011;8185;57.818;15.224;2022-08-19T01:04:06;33.77;;;30.27;;
16159;SDS011;8185;57.818;15.224;2022-08-19T01:06:33;36.37;;;30.27;;
16159;SDS011;8185;57.818;15.224;2022-08-19T01:09:03;33.60;;;29.93;;
16159;SDS011;8185;57.818;15.224;2022-08-19T01:11:33;30.77;;;27.47;;
16159;SDS011;8185;57.818;15.224;2022-08-19T01:14:02;32.37;;;28.67;;
16159;SDS011;8185;57.818;15.224;2022-08-19T01:16:31;30.63;;;27.13;;
16159;SDS011;8185;57.818;15.224;2022-08-19T01:18:59;35.20;;;31.10;;
16159;SDS011;8185;57.818;15.224;2022-08-19T01:21:28;33.37;;;29.97;;
16159;SDS011;8185;57.818;15.224;2022-08-19T01:24:02;37.33;;;31.47;;
16159;SDS011;8185;57.818;15.224;2022-08-19T01:26:30;34.27;;;30.67;;
16159;SDS011;8185;57.818;15.224;2022-08-19T01:28:58;37.63;;;31.70;;
16159;SDS011;8185;57.818;15.224;2022-08-19T01:31:28;33.23;;;29.93;;
16159;SDS011;8185;57.818;15.224;2022-08-19T01:33:56;46.57;;;35.30;;
16159;SDS011;8185;57.818;15.224;2022-08-19T01:36:27;43.00;;;35.20;;
16159;SDS011;8185;57.818;15.224;2022-08-19T01:38:57;46.17;;;35.57;;
16159;SDS011;8185;57.818;15.224;2022-08-19T01:41:26;40.53;;;33.73;;
16159;SDS011;8185;57.818;15.224;2022-08-19T01:43:53;31.73;;;28.37;;
16159;SDS011;8185;57.818;15.224;2022-08-19T01:46:21;29.23;;;26.13;;
16159;SDS011;8185;57.818;15.224;2022-08-19T01:48:48;30.10;;;26.43;;
16159;SDS011;8185;57.818;15.224;2022-08-19T01:51:16;27.80;;;25.03;;
16159;SDS011;8185;57.818;15.224;2022-08-19T01:53:45;29.27;;;26.30;;
16159;SDS011;8185;57.818;15.224;2022-08-19T01:56:13;32.87;;;28.03;;
16159;SDS011;8185;57.818;15.224;2022-08-19T01:58:43;31.73;;;28.23;;
16159;SDS011;8185;57.818;15.224;2022-08-19T02:01:16;31.63;;;26.13;;
16159;SDS011;8185;57.818;15.224;2022-08-19T02:03:43;35.00;;;27.57;;
16159;SDS011;8185;57.818;15.224;2022-08-19T02:06:11;28.70;;;25.53;;
16159;SDS011;8185;57.818;15.224;2022-08-19T02:08:38;32.03;;;28.77;;
16159;SDS011;8185;57.818;15.224;2022-08-19T02:11:06;31.13;;;27.97;;
16159;SDS011;8185;57.818;15.224;2022-08-19T02:13:34;30.70;;;27.77;;
16159;SDS011;8185;57.818;15.224;2022-08-19T02:16:03;32.67;;;29.17;;
16159;SDS011;8185;57.818;15.224;2022-08-19T02:18:31;38.90;;;31.67;;
16159;SDS011;8185;57.818;15.224;2022-08-19T02:20:58;39.03;;;32.87;;
16159;SDS011;8185;57.818;15.224;2022-08-19T02:23:26;37.70;;;31.00;;
16159;SDS011;8185;57.818;15.224;2022-08-19T02:25:53;44.37;;;31.63;;
16159;SDS011;8185;57.818;15.224;2022-08-19T02:28:21;45.13;;;35.07;;
16159;SDS011;8185;57.818;15.224;2022-08-19T02:30:48;46.13;;;34.50;;
16159;SDS011;8185;57.818;15.224;2022-08-19T02:33:17;48.67;;;37.07;;
16159;SDS011;8185;57.818;15.224;2022-08-19T02:35:45;46.93;;;36.97;;
16159;SDS011;8185;57.818;15.224;2022-08-19T02:38:13;41.90;;;34.27;;
16159;SDS011;8185;57.818;15.224;2022-08-19T02:40:52;36.07;;;31.20;;
16159;SDS011;8185;57.818;15.224;2022-08-19T02:43:22;38.70;;;31.77;;
16159;SDS011;8185;57.818;15.224;2022-08-19T02:45:51;33.40;;;29.40;;
16159;SDS011;8185;57.818;15.224;2022-08-19T02:48:21;45.73;;;33.37;;
16159;SDS011;8185;57.818;15.224;2022-08-19T02:50:50;43.90;;;31.77;;
16159;SDS011;8185;57.818;15.224;2022-08-19T02:53:20;51.70;;;35.97;;
16159;SDS011;8185;57.818;15.224;2022-08-19T02:55:49;47.23;;;35.23;;
16159;SDS011;8185;57.818;15.224;2022-08-19T02:58:17;44.07;;;33.53;;
16159;SDS011;8185;57.818;15.224;2022-08-19T03:00:48;44.53;;;33.13;;
16159;SDS011;8185;57.818;15.224;2022-08-19T03:03:17;52.13;;;36.83;;
16159;SDS011;8185;57.818;15.224;2022-08-19T03:05:46;68.67;;;39.77;;
16159;SDS011;8185;57.818;15.224;2022-08-19T03:08:14;51.03;;;37.43;;
16159;SDS011;8185;57.818;15.224;2022-08-19T03:10:42;63.37;;;39.60;;
16159;SDS011;8185;57.818;15.224;2022-08-19T03:13:12;51.33;;;37.63;;
16159;SDS011;8185;57.818;15.224;2022-08-19T03:15:41;57.50;;;39.57;;
16159;SDS011;8185;57.818;15.224;2022-08-19T03:18:10;59.07;;;38.33;;
16159;SDS011;8185;57.818;15.224;2022-08-19T03:20:43;49.70;;;36.87;;
16159;SDS011;8185;57.818;15.224;2022-08-19T03:23:12;47.27;;;34.63;;
16159;SDS011;8185;57.818;15.224;2022-08-19T03:25:41;47.80;;;36.20;;
16159;SDS011;8185;57.818;15.224;2022-08-19T03:28:09;48.60;;;35.70;;
16159;SDS011;8185;57.818;15.224;2022-08-19T03:30:37;40.23;;;33.23;;
16159;SDS011;8185;57.818;15.224;2022-08-19T03:33:06;36.97;;;31.57;;
16159;SDS011;8185;57.818;15.224;2022-08-19T03:35:34;41.50;;;33.87;;
16159;SDS011;8185;57.818;15.224;2022-08-19T03:38:04;45.00;;;35.00;;
16159;SDS011;8185;57.818;15.224;2022-08-19T03:40:32;42.07;;;33.60;;
16159;SDS011;8185;57.818;15.224;2022-08-19T03:43:03;37.37;;;30.83;;
16159;SDS011;8185;57.818;15.224;2022-08-19T03:45:31;35.90;;;29.63;;
16159;SDS011;8185;57.818;15.224;2022-08-19T03:47:58;34.83;;;29.30;;
16159;SDS011;8185;57.818;15.224;2022-08-19T03:50:25;38.50;;;30.10;;
16159;SDS011;8185;57.818;15.224;2022-08-19T03:52:54;39.77;;;28.13;;
16159;SDS011;8185;57.818;15.224;2022-08-19T03:55:22;41.27;;;26.33;;
16159;SDS011;8185;57.818;15.224;2022-08-19T03:57:50;50.50;;;27.67;;
16159;SDS011;8185;57.818;15.224;2022-08-19T04:00:17;45.33;;;26.67;;
16159;SDS011;8185;57.818;15.224;2022-08-19T04:02:44;49.27;;;27.27;;
16159;SDS011;8185;57.818;15.224;2022-08-19T04:05:12;68.20;;;30.77;;
16159;SDS011;8185;57.818;15.224;2022-08-19T04:07:40;46.97;;;26.57;;
16159;SDS011;8185;57.818;15.224;2022-08-19T04:10:07;36.73;;;27.07;;
16159;SDS011;8185;57.818;15.224;2022-08-19T04:12:36;49.10;;;27.07;;
16159;SDS011;8185;57.818;15.224;2022-08-19T04:15:04;33.53;;;24.53;;
16159;SDS011;8185;57.818;15.224;2022-08-19T04:17:33;37.83;;;23.87;;
16159;SDS011;8185;57.818;15.224;2022-08-19T04:20:00;52.57;;;25.30;;
16159;SDS011;8185;57.818;15.224;2022-08-19T04:22:27;66.80;;;25.70;;
16159;SDS011;8185;57.818;15.224;2022-08-19T04:24:55;75.17;;;25.80;;
16159;SDS011;8185;57.818;15.224;2022-08-19T04:27:22;56.77;;;23.97;;
16159;SDS011;8185;57.818;15.224;2022-08-19T04:29:51;47.50;;;23.93;;
16159;SDS011;8185;57.818;15.224;2022-08-19T04:32:19;29.17;;;23.47;;
16159;SDS011;8185;57.818;15.224;2022-08-19T04:34:47;26.03;;;23.13;;
16159;SDS011;8185;57.818;15.224;2022-08-19T04:37:15;31.07;;;24.70;;
16159;SDS011;8185;57.818;15.224;2022-08-19T04:39:42;30.17;;;24.83;;
16159;SDS011;8185;57.818;15.224;2022-08-19T04:42:27;30.97;;;24.83;;
16159;SDS011;8185;57.818;15.224;2022-08-19T04:45:09;27.17;;;24.10;;
16159;SDS011;8185;57.818;15.224;2022-08-19T04:47:38;29.90;;;23.50;;
16159;SDS011;8185;57.818;15.224;2022-08-19T04:50:08;29.63;;;24.83;;
16159;SDS011;8185;57.818;15.224;2022-08-19T04:52:37;26.57;;;23.83;;
16159;SDS011;8185;57.818;15.224;2022-08-19T04:55:08;25.30;;;22.83;;
16159;SDS011;8185;57.818;15.224;2022-08-19T04:57:35;26.53;;;23.97;;
16159;SDS011;8185;57.818;15.224;2022-08-19T05:00:05;25.27;;;22.93;;
16159;SDS011;8185;57.818;15.224;2022-08-19T05:02:35;25.90;;;23.30;;
16159;SDS011;8185;57.818;15.224;2022-08-19T05:05:04;24.87;;;22.67;;
16159;SDS011;8185;57.818;15.224;2022-08-19T05:07:31;24.20;;;21.87;;
16159;SDS011;8185;57.818;15.224;2022-08-19T05:09:59;23.47;;;21.23;;
16159;SDS011;8185;57.818;15.224;2022-08-19T05:12:26;24.50;;;22.17;;
16159;SDS011;8185;57.818;15.224;2022-08-19T05:14:54;25.07;;;22.87;;
16159;SDS011;8185;57.818;15.224;2022-08-19T05:17:23;25.23;;;22.93;;
16159;SDS011;8185;57.818;15.224;2022-08-19T05:19:50;22.43;;;20.43;;
16159;SDS011;8185;57.818;15.224;2022-08-19T05:22:35;23.47;;;21.33;;
16159;SDS011;8185;57.818;15.224;2022-08-19T05:25:05;22.23;;;20.43;;
16159;SDS011;8185;57.818;15.224;2022-08-19T05:27:34;21.37;;;19.57;;
16159;SDS011;8185;57.818;15.224;2022-08-19T05:30:02;21.73;;;19.93;;
16159;SDS011;8185;57.818;15.224;2022-08-19T05:32:32;20.60;;;18.87;;
16159;SDS011;8185;57.818;15.224;2022-08-19T05:34:59;20.27;;;18.57;;
16159;SDS011;8185;57.818;15.224;2022-08-19T05:37:27;20.67;;;18.90;;
16159;SDS011;8185;57.818;15.224;2022-08-19T05:39:55;18.77;;;17.00;;
16159;SDS011;8185;57.818;15.224;2022-08-19T05:42:22;18.60;;;17.13;;
16159;SDS011;8185;57.818;15.224;2022-08-19T05:44:49;17.60;;;16.10;;
16159;SDS011;8185;57.818;15.224;2022-08-19T05:47:17;17.27;;;15.87;;
16159;SDS011;8185;57.818;15.224;2022-08-19T05:49:46;16.47;;;15.17;;
16159;SDS011;8185;57.818;15.224;2022-08-19T05:52:15;15.50;;;13.97;;
16159;SDS011;8185;57.818;15.224;2022-08-19T05:54:43;13.47;;;12.33;;
16159;SDS011;8185;57.818;15.224;2022-08-19T05:57:13;13.27;;;12.27;;
16159;SDS011;8185;57.818;15.224;2022-08-19T05:59:41;13.70;;;12.70;;
16159;SDS011;8185;57.818;15.224;2022-08-19T06:02:10;13.03;;;11.70;;
16159;SDS011;8185;57.818;15.224;2022-08-19T06:04:38;12.17;;;11.17;;
16159;SDS011;8185;57.818;15.224;2022-08-19T06:07:09;11.87;;;10.73;;
16159;SDS011;8185;57.818;15.224;2022-08-19T06:09:36;12.73;;;11.43;;
16159;SDS011;8185;57.818;15.224;2022-08-19T06:12:04;11.87;;;10.90;;
16159;SDS011;8185;57.818;15.224;2022-08-19T06:14:32;10.87;;;9.90;;
16159;SDS011;8185;57.818;15.224;2022-08-19T06:17:01;9.93;;;8.98;;
16159;SDS011;8185;57.818;15.224;2022-08-19T06:19:29;9.70;;;9.00;;
16159;SDS011;8185;57.818;15.224;2022-08-19T06:21:57;12.67;;;9.10;;
16159;SDS011;8185;57.818;15.224;2022-08-19T06:24:28;9.70;;;8.90;;
16159;SDS011;8185;57.818;15.224;2022-08-19T06:26:57;10.37;;;7.47;;
16159;SDS011;8185;57.818;15.224;2022-08-19T06:29:25;9.80;;;7.63;;
16159;SDS011;8185;57.818;15.224;2022-08-19T06:31:55;8.02;;;7.32;;
16159;SDS011;8185;57.818;15.224;2022-08-19T06:34:24;7.32;;;6.63;;
16159;SDS011;8185;57.818;15.224;2022-08-19T06:36:53;6.88;;;6.28;;
16159;SDS011;8185;57.818;15.224;2022-08-19T06:39:22;10.00;;;6.28;;
16159;SDS011;8185;57.818;15.224;2022-08-19T06:41:55;7.07;;;5.93;;
16159;SDS011;8185;57.818;15.224;2022-08-19T06:44:24;6.15;;;5.55;;
16159;SDS011;8185;57.818;15.224;2022-08-19T06:46:53;10.27;;;6.05;;
16159;SDS011;8185;57.818;15.224;2022-08-19T06:49:21;8.23;;;5.35;;
16159;SDS011;8185;57.818;15.224;2022-08-19T06:51:50;6.72;;;5.93;;
16159;SDS011;8185;57.818;15.224;2022-08-19T06:54:17;9.40;;;5.70;;
16159;SDS011;8185;57.818;15.224;2022-08-19T06:56:45;9.88;;;5.57;;
16159;SDS011;8185;57.818;15.224;2022-08-19T06:59:15;6.38;;;5.00;;
16159;SDS011;8185;57.818;15.224;2022-08-19T07:01:46;6.65;;;4.95;;
16159;SDS011;8185;57.818;15.224;2022-08-19T07:04:15;6.30;;;5.40;;
16159;SDS011;8185;57.818;15.224;2022-08-19T07:06:44;6.03;;;4.90;;
16159;SDS011;8185;57.818;15.224;2022-08-19T07:09:12;5.57;;;5.07;;
16159;SDS011;8185;57.818;15.224;2022-08-19T07:11:43;7.53;;;4.90;;
16159;SDS011;8185;57.818;15.224;2022-08-19T07:14:12;9.90;;;5.07;;
16159;SDS011;8185;57.818;15.224;2022-08-19T07:16:43;6.00;;;5.25;;
16159;SDS011;8185;57.818;15.224;2022-08-19T07:19:11;6.35;;;5.05;;
16159;SDS011;8185;57.818;15.224;2022-08-19T07:21:39;10.00;;;5.18;;
16159;SDS011;8185;57.818;15.224;2022-08-19T07:24:07;6.47;;;5.30;;
16159;SDS011;8185;57.818;15.224;2022-08-19T07:26:37;12.05;;;5.75;;
16159;SDS011;8185;57.818;15.224;2022-08-19T07:29:07;5.43;;;4.82;;
16159;SDS011;8185;57.818;15.224;2022-08-19T07:31:36;8.32;;;4.90;;
16159;SDS011;8185;57.818;15.224;2022-08-19T07:34:04;6.32;;;4.90;;
16159;SDS011;8185;57.818;15.224;2022-08-19T07:36:34;6.90;;;4.85;;
16159;SDS011;8185;57.818;15.224;2022-08-19T07:39:05;7.57;;;4.80;;
16159;SDS011;8185;57.818;15.224;2022-08-19T07:41:35;7.00;;;4.55;;
16159;SDS011;8185;57.818;15.224;2022-08-19T07:44:03;12.50;;;4.80;;
16159;SDS011;8185;57.818;15.224;2022-08-19T07:46:32;8.43;;;5.25;;
16159;SDS011;8185;57.818;15.224;2022-08-19T07:49:02;7.88;;;4.50;;
16159;SDS011;8185;57.818;15.224;2022-08-19T07:51:30;4.93;;;4.35;;
16159;SDS011;8185;57.818;15.224;2022-08-19T07:53:57;7.05;;;4.72;;
16159;SDS011;8185;57.818;15.224;2022-08-19T07:56:25;6.07;;;4.57;;
16159;SDS011;8185;57.818;15.224;2022-08-19T07:58:53;5.13;;;4.38;;
16159;SDS011;8185;57.818;15.224;2022-08-19T08:01:21;5.28;;;4.75;;
16159;SDS011;8185;57.818;15.224;2022-08-19T08:03:52;5.55;;;4.40;;
16159;SDS011;8185;57.818;15.224;2022-08-19T08:06:39;7.95;;;4.78;;
16159;SDS011;8185;57.818;15.224;2022-08-19T08:09:25;7.55;;;4.53;;
16159;SDS011;8185;57.818;15.224;2022-08-19T08:11:57;8.45;;;4.55;;
16159;SDS011;8185;57.818;15.224;2022-08-19T08:14:28;6.82;;;4.75;;
16159;SDS011;8185;57.818;15.224;2022-08-19T08:16:59;8.15;;;4.25;;
16159;SDS011;8185;57.818;15.224;2022-08-19T08:19:27;8.20;;;4.68;;
16159;SDS011;8185;57.818;15.224;2022-08-19T08:21:57;8.23;;;4.25;;
16159;SDS011;8185;57.818;15.224;2022-08-19T08:24:26;8.88;;;4.47;;
16159;SDS011;8185;57.818;15.224;2022-08-19T08:26:56;6.85;;;4.53;;
16159;SDS011;8185;57.818;15.224;2022-08-19T08:29:25;8.27;;;5.00;;
16159;SDS011;8185;57.818;15.224;2022-08-19T08:31:53;5.50;;;4.65;;
16159;SDS011;8185;57.818;15.224;2022-08-19T08:34:21;8.77;;;4.88;;
16159;SDS011;8185;57.818;15.224;2022-08-19T08:36:48;6.35;;;4.97;;
16159;SDS011;8185;57.818;15.224;2022-08-19T08:39:19;8.02;;;4.25;;
16159;SDS011;8185;57.818;15.224;2022-08-19T08:41:50;5.93;;;4.80;;
16159;SDS011;8185;57.818;15.224;2022-08-19T08:44:23;6.55;;;4.28;;
16159;SDS011;8185;57.818;15.224;2022-08-19T08:46:56;4.82;;;4.40;;
16159;SDS011;8185;57.818;15.224;2022-08-19T08:49:31;5.78;;;4.78;;
16159;SDS011;8185;57.818;15.224;2022-08-19T08:52:06;6.25;;;4.28;;
16159;SDS011;8185;57.818;15.224;2022-08-19T08:54:39;7.32;;;4.60;;
16159;SDS011;8185;57.818;15.224;2022-08-19T08:57:10;6.30;;;4.75;;
16159;SDS011;8185;57.818;15.224;2022-08-19T08:59:40;7.93;;;4.90;;
16159;SDS011;8185;57.818;15.224;2022-08-19T09:02:10;5.88;;;4.43;;
16159;SDS011;8185;57.818;15.224;2022-08-19T09:04:37;10.07;;;4.97;;
16159;SDS011;8185;57.818;15.224;2022-08-19T09:10:10;7.63;;;4.20;;
16159;SDS011;8185;57.818;15.224;2022-08-19T09:12:47;5.85;;;4.75;;
16159;SDS011;8185;57.818;15.224;2022-08-19T09:15:24;5.90;;;4.38;;
16159;SDS011;8185;57.818;15.224;2022-08-19T09:17:59;5.38;;;4.63;;
16159;SDS011;8185;57.818;15.224;2022-08-19T09:20:28;6.57;;;4.45;;
16159;SDS011;8185;57.818;15.224;2022-08-19T09:22:57;11.45;;;4.60;;
16159;SDS011;8185;57.818;15.224;2022-08-19T09:25:26;5.97;;;4.40;;
16159;SDS011;8185;57.818;15.224;2022-08-19T09:27:53;4.35;;;3.95;;
16159;SDS011;8185;57.818;15.224;2022-08-19T09:30:23;7.10;;;4.28;;
16159;SDS011;8185;57.818;15.224;2022-08-19T09:32:52;7.35;;;3.65;;
16159;SDS011;8185;57.818;15.224;2022-08-19T09:35:21;6.28;;;4.13;;
16159;SDS011;8185;57.818;15.224;2022-08-19T09:37:50;5.55;;;4.18;;
16159;SDS011;8185;57.818;15.224;2022-08-19T09:40:18;5.40;;;4.40;;
16159;SDS011;8185;57.818;15.224;2022-08-19T09:42:47;6.07;;;4.25;;
16159;SDS011;8185;57.818;15.224;2022-08-19T09:45:14;5.63;;;4.28;;
16159;SDS011;8185;57.818;15.224;2022-08-19T09:47:46;8.52;;;4.03;;
16159;SDS011;8185;57.818;15.224;2022-08-19T09:50:16;10.10;;;4.40;;
16159;SDS011;8185;57.818;15.224;2022-08-19T09:52:44;5.05;;;3.92;;
16159;SDS011;8185;57.818;15.224;2022-08-19T09:55:12;7.70;;;4.25;;
16159;SDS011;8185;57.818;15.224;2022-08-19T09:57:41;6.53;;;4.18;;
16159;SDS011;8185;57.818;15.224;2022-08-19T10:00:10;6.53;;;4.03;;
16159;SDS011;8185;57.818;15.224;2022-08-19T10:02:38;5.28;;;3.78;;
16159;SDS011;8185;57.818;15.224;2022-08-19T10:05:05;7.03;;;4.05;;
16159;SDS011;8185;57.818;15.224;2022-08-19T10:07:50;6.40;;;4.20;;
16159;SDS011;8185;57.818;15.224;2022-08-19T10:10:18;6.43;;;3.95;;
16159;SDS011;8185;57.818;15.224;2022-08-19T10:12:45;6.78;;;3.97;;
16159;SDS011;8185;57.818;15.224;2022-08-19T10:15:14;3.80;;;3.20;;
16159;SDS011;8185;57.818;15.224;2022-08-19T10:17:41;6.85;;;3.85;;
16159;SDS011;8185;57.818;15.224;2022-08-19T10:20:09;5.30;;;3.75;;
16159;SDS011;8185;57.818;15.224;2022-08-19T10:22:37;5.90;;;3.70;;
16159;SDS011;8185;57.818;15.224;2022-08-19T10:25:05;6.70;;;3.65;;
16159;SDS011;8185;57.818;15.224;2022-08-19T10:27:34;6.93;;;3.53;;
16159;SDS011;8185;57.818;15.224;2022-08-19T10:30:02;8.52;;;3.25;;
16159;SDS011;8185;57.818;15.224;2022-08-19T10:32:32;3.80;;;3.50;;
16159;SDS011;8185;57.818;15.224;2022-08-19T10:34:59;5.00;;;3.50;;
16159;SDS011;8185;57.818;15.224;2022-08-19T10:37:27;5.05;;;3.33;;
16159;SDS011;8185;57.818;15.224;2022-08-19T10:39:55;3.90;;;3.05;;
16159;SDS011;8185;57.818;15.224;2022-08-19T10:42:23;3.78;;;3.38;;
16159;SDS011;8185;57.818;15.224;2022-08-19T10:44:50;5.15;;;3.10;;
16159;SDS011;8185;57.818;15.224;2022-08-19T10:47:18;4.13;;;3.67;;
16159;SDS011;8185;57.818;15.224;2022-08-19T10:49:47;7.90;;;3.85;;
16159;SDS011;8185;57.818;15.224;2022-08-19T10:52:32;6.43;;;3.28;;
16159;SDS011;8185;57.818;15.224;2022-08-19T10:54:59;3.38;;;3.03;;
16159;SDS011;8185;57.818;15.224;2022-08-19T10:57:44;3.30;;;3.10;;
16159;SDS011;8185;57.818;15.224;2022-08-19T11:00:12;4.72;;;3.35;;
16159;SDS011;8185;57.818;15.224;2022-08-19T11:02:40;3.78;;;3.10;;
16159;SDS011;8185;57.818;15.224;2022-08-19T11:05:09;6.93;;;3.10;;
16159;SDS011;8185;57.818;15.224;2022-08-19T11:07:37;3.90;;;3.20;;
16159;SDS011;8185;57.818;15.224;2022-08-19T11:10:05;5.70;;;2.70;;
16159;SDS011;8185;57.818;15.224;2022-08-19T11:12:36;5.68;;;3.30;;
16159;SDS011;8185;57.818;15.224;2022-08-19T11:15:05;4.55;;;2.92;;
16159;SDS011;8185;57.818;15.224;2022-08-19T11:17:35;5.72;;;3.35;;
16159;SDS011;8185;57.818;15.224;2022-08-19T11:20:06;4.18;;;2.97;;
16159;SDS011;8185;57.818;15.224;2022-08-19T11:22:35;3.17;;;2.60;;
16159;SDS011;8185;57.818;15.224;2022-08-19T11:25:03;4.30;;;3.00;;
16159;SDS011;8185;57.818;15.224;2022-08-19T11:27:31;4.53;;;2.70;;
16159;SDS011;8185;57.818;15.224;2022-08-19T11:29:58;6.15;;;3.30;;
16159;SDS011;8185;57.818;15.224;2022-08-19T11:32:28;4.43;;;3.17;;
16159;SDS011;8185;57.818;15.224;2022-08-19T11:34:56;4.85;;;3.08;;
16159;SDS011;8185;57.818;15.224;2022-08-19T11:37:25;4.43;;;3.60;;
16159;SDS011;8185;57.818;15.224;2022-08-19T11:39:52;3.35;;;3.05;;
16159;SDS011;8185;57.818;15.224;2022-08-19T11:42:19;6.82;;;3.17;;
16159;SDS011;8185;57.818;15.224;2022-08-19T11:45:04;3.63;;;3.10;;
16159;SDS011;8185;57.818;15.224;2022-08-19T11:47:32;3.75;;;3.20;;
16159;SDS011;8185;57.818;15.224;2022-08-19T11:49:59;3.25;;;2.83;;
16159;SDS011;8185;57.818;15.224;2022-08-19T11:52:28;4.05;;;3.40;;
16159;SDS011;8185;57.818;15.224;2022-08-19T11:54:55;4.72;;;3.25;;
16159;SDS011;8185;57.818;15.224;2022-08-19T11:57:23;4.20;;;3.30;;
16159;SDS011;8185;57.818;15.224;2022-08-19T11:59:50;5.53;;;3.20;;
16159;SDS011;8185;57.818;15.224;2022-08-19T12:02:19;5.32;;;4.13;;
16159;SDS011;8185;57.818;15.224;2022-08-19T12:04:46;6.38;;;3.80;;
16159;SDS011;8185;57.818;15.224;2022-08-19T12:07:14;5.60;;;3.45;;
16159;SDS011;8185;57.818;15.224;2022-08-19T12:09:43;4.25;;;3.85;;
16159;SDS011;8185;57.818;15.224;2022-08-19T12:12:11;4.47;;;3.65;;
16159;SDS011;8185;57.818;15.224;2022-08-19T12:14:38;3.72;;;3.42;;
16159;SDS011;8185;57.818;15.224;2022-08-19T12:17:05;6.72;;;4.28;;
16159;SDS011;8185;57.818;15.224;2022-08-19T12:19:35;6.15;;;3.70;;
16159;SDS011;8185;57.818;15.224;2022-08-19T12:22:04;8.85;;;3.60;;
16159;SDS011;8185;57.818;15.224;2022-08-19T12:24:32;3.97;;;3.08;;
16159;SDS011;8185;57.818;15.224;2022-08-19T12:27:01;6.35;;;3.92;;
16159;SDS011;8185;57.818;15.224;2022-08-19T12:29:29;7.97;;;3.65;;
16159;SDS011;8185;57.818;15.224;2022-08-19T12:31:56;4.85;;;3.78;;
16159;SDS011;8185;57.818;15.224;2022-08-19T12:34:27;4.20;;;3.47;;
16159;SDS011;8185;57.818;15.224;2022-08-19T12:36:56;8.50;;;3.90;;
16159;SDS011;8185;57.818;15.224;2022-08-19T12:39:23;4.43;;;4.03;;
16159;SDS011;8185;57.818;15.224;2022-08-19T12:41:51;3.95;;;3.55;;
16159;SDS011;8185;57.818;15.224;2022-08-19T12:44:20;4.80;;;4.30;;
16159;SDS011;8185;57.818;15.224;2022-08-19T12:46:48;4.82;;;3.90;;
16159;SDS011;8185;57.818;15.224;2022-08-19T12:49:15;6.45;;;4.40;;
16159;SDS011;8185;57.818;15.224;2022-08-19T12:51:43;4.75;;;4.22;;
16159;SDS011;8185;57.818;15.224;2022-08-19T12:54:11;6.97;;;4.03;;
16159;SDS011;8185;57.818;15.224;2022-08-19T12:56:38;6.57;;;4.20;;
16159;SDS011;8185;57.818;15.224;2022-08-19T12:59:06;4.30;;;4.00;;
16159;SDS011;8185;57.818;15.224;2022-08-19T13:01:35;5.32;;;4.18;;
16159;SDS011;8185;57.818;15.224;2022-08-19T13:04:03;4.35;;;3.95;;
16159;SDS011;8185;57.818;15.224;2022-08-19T13:06:30;4.85;;;3.97;;
16159;SDS011;8185;57.818;15.224;2022-08-19T13:08:58;6.97;;;4.32;;
16159;SDS011;8185;57.818;15.224;2022-08-19T13:11:25;5.60;;;4.30;;
16159;SDS011;8185;57.818;15.224;2022-08-19T13:13:57;4.63;;;3.85;;
16159;SDS011;8185;57.818;15.224;2022-08-19T13:16:25;6.78;;;4.28;;
16159;SDS011;8185;57.818;15.224;2022-08-19T13:18:54;4.78;;;4.10;;
16159;SDS011;8185;57.818;15.224;2022-08-19T13:21:23;6.45;;;4.40;;
16159;SDS011;8185;57.818;15.224;2022-08-19T13:23:53;4.95;;;4.40;;
16159;SDS011;8185;57.818;15.224;2022-08-19T13:26:20;6.50;;;4.43;;
16159;SDS011;8185;57.818;15.224;2022-08-19T13:28:47;5.82;;;4.20;;
16159;SDS011;8185;57.818;15.224;2022-08-19T13:31:33;7.35;;;4.50;;
16159;SDS011;8185;57.818;15.224;2022-08-19T13:34:26;6.35;;;4.35;;
16159;SDS011;8185;57.818;15.224;2022-08-19T13:36:57;4.95;;;4.55;;
16159;SDS011;8185;57.818;15.224;2022-08-19T13:39:24;5.10;;;4.60;;
16159;SDS011;8185;57.818;15.224;2022-08-19T13:41:52;5.28;;;3.83;;
16159;SDS011;8185;57.818;15.224;2022-08-19T13:44:19;4.88;;;4.47;;
16159;SDS011;8185;57.818;15.224;2022-08-19T13:46:47;7.03;;;4.38;;
16159;SDS011;8185;57.818;15.224;2022-08-19T13:49:19;5.65;;;4.63;;
16159;SDS011;8185;57.818;15.224;2022-08-19T13:51:48;5.63;;;4.85;;
16159;SDS011;8185;57.818;15.224;2022-08-19T13:54:15;6.45;;;4.20;;
16159;SDS011;8185;57.818;15.224;2022-08-19T13:56:43;6.32;;;4.60;;
16159;SDS011;8185;57.818;15.224;2022-08-19T13:59:12;5.53;;;4.60;;
16159;SDS011;8185;57.818;15.224;2022-08-19T14:01:39;9.90;;;4.80;;
16159;SDS011;8185;57.818;15.224;2022-08-19T14:04:07;6.63;;;4.95;;
16159;SDS011;8185;57.818;15.224;2022-08-19T14:06:37;7.32;;;4.55;;
16159;SDS011;8185;57.818;15.224;2022-08-19T14:09:04;6.15;;;4.78;;
16159;SDS011;8185;57.818;15.224;2022-08-19T14:11:33;6.68;;;5.03;;
16159;SDS011;8185;57.818;15.224;2022-08-19T14:14:00;5.03;;;4.63;;
16159;SDS011;8185;57.818;15.224;2022-08-19T14:16:27;6.63;;;4.97;;
16159;SDS011;8185;57.818;15.224;2022-08-19T14:18:55;4.95;;;4.55;;
16159;SDS011;8185;57.818;15.224;2022-08-19T14:21:25;6.13;;;4.47;;
16159;SDS011;8185;57.818;15.224;2022-08-19T14:23:54;6.22;;;4.97;;
16159;SDS011;8185;57.818;15.224;2022-08-19T14:26:21;6.07;;;4.75;;
16159;SDS011;8185;57.818;15.224;2022-08-19T14:28:49;7.32;;;5.18;;
16159;SDS011;8185;57.818;15.224;2022-08-19T14:31:17;5.20;;;4.70;;
16159;SDS011;8185;57.818;15.224;2022-08-19T14:33:49;7.65;;;5.00;;
16159;SDS011;8185;57.818;15.224;2022-08-19T14:36:16;8.15;;;4.55;;
16159;SDS011;8185;57.818;15.224;2022-08-19T14:38:44;6.85;;;5.38;;
16159;SDS011;8185;57.818;15.224;2022-08-19T14:41:14;6.20;;;5.43;;
16159;SDS011;8185;57.818;15.224;2022-08-19T14:43:44;6.72;;;5.30;;
16159;SDS011;8185;57.818;15.224;2022-08-19T14:46:13;7.10;;;5.80;;
16159;SDS011;8185;57.818;15.224;2022-08-19T14:48:41;6.90;;;5.43;;
16159;SDS011;8185;57.818;15.224;2022-08-19T14:51:09;8.23;;;5.70;;